KTVF

Thief River Falls Regional Airport

Thief River Falls, Minnesota, USA
KTVF 181137Z 1812/1912 02008KT P6SM SCT250 FM190000 35005KT P6SM SCT250
Issued Valid From Valid To
Jan-18 @ 11:37 UTC
(7 minutes ago)
Jan-18 @ 12:00 UTC
(in 16 minutes)
Jan-19 @ 12:00 UTC
(in 24 hours)
Jan-18 @ 12:00 to Jan-19 @ 00:00
KTVF 181137Z 1812/1912 02008KT P6SM SCT250
Wind Visibility Clouds
20° at 8 knots Greater than 6 miles
  • Scattered at 25,000' AGL
From Jan-19 @ 00:00 to Jan-19 @ 12:00
FM190000 35005KT P6SM SCT250
Wind Visibility Clouds
350° at 5 knots Greater than 6 miles
  • Scattered at 25,000' AGL
KTVF 181137Z 1812/1912 02008KT P6SM SCT250 FM190000 35005KT P6SM SCT250
Issued Jan-18 @ 11:37 UTC
(7 minutes ago)
Valid From Jan-18 @ 12:00 UTC
(in 16 minutes)
Valid To Jan-19 @ 12:00 UTC
(in 24 hours)
Jan-18 @ 12:00 - Jan-19 @ 00:00
Wind Visibility
20° at 8 knots Greater than 6 miles
Clouds
  • Scattered at 25,000' AGL
From Jan-19 @ 00:00 - Jan-19 @ 12:00
Wind Visibility
350° at 5 knots Greater than 6 miles
Clouds
  • Scattered at 25,000' AGL